sensor_id;sensor_type;location;lat;lon;timestamp;P1;durP1;ratioP1;P2;durP2;ratioP2
61344;SDS011;47216;42.656;23.232;2024-01-15T00:02:15;109.67;;;36.90;;
61344;SDS011;47216;42.656;23.232;2024-01-15T00:04:46;86.43;;;30.87;;
61344;SDS011;47216;42.656;23.232;2024-01-15T00:07:15;95.93;;;31.00;;
61344;SDS011;47216;42.656;23.232;2024-01-15T00:09:43;110.63;;;35.27;;
61344;SDS011;47216;42.656;23.232;2024-01-15T00:12:12;140.87;;;44.23;;
61344;SDS011;47216;42.656;23.232;2024-01-15T00:14:43;109.37;;;40.43;;
61344;SDS011;47216;42.656;23.232;2024-01-15T00:17:13;120.00;;;39.03;;
61344;SDS011;47216;42.656;23.232;2024-01-15T00:19:44;123.77;;;39.37;;
61344;SDS011;47216;42.656;23.232;2024-01-15T00:22:14;96.63;;;34.80;;
61344;SDS011;47216;42.656;23.232;2024-01-15T00:24:44;120.37;;;38.20;;
61344;SDS011;47216;42.656;23.232;2024-01-15T00:27:15;99.50;;;33.00;;
61344;SDS011;47216;42.656;23.232;2024-01-15T00:29:46;94.63;;;31.47;;
61344;SDS011;47216;42.656;23.232;2024-01-15T00:32:16;104.60;;;34.37;;
61344;SDS011;47216;42.656;23.232;2024-01-15T00:34:46;109.70;;;35.13;;
61344;SDS011;47216;42.656;23.232;2024-01-15T00:37:16;71.13;;;25.60;;
61344;SDS011;47216;42.656;23.232;2024-01-15T00:39:45;76.40;;;27.33;;
61344;SDS011;47216;42.656;23.232;2024-01-15T00:42:14;74.90;;;25.30;;
61344;SDS011;47216;42.656;23.232;2024-01-15T00:44:46;68.03;;;22.70;;
61344;SDS011;47216;42.656;23.232;2024-01-15T00:47:18;67.80;;;22.57;;
61344;SDS011;47216;42.656;23.232;2024-01-15T00:49:47;62.10;;;21.03;;
61344;SDS011;47216;42.656;23.232;2024-01-15T00:52:17;68.63;;;23.57;;
61344;SDS011;47216;42.656;23.232;2024-01-15T00:54:46;57.13;;;20.03;;
61344;SDS011;47216;42.656;23.232;2024-01-15T00:57:15;39.03;;;15.07;;
61344;SDS011;47216;42.656;23.232;2024-01-15T00:59:47;69.83;;;23.23;;
61344;SDS011;47216;42.656;23.232;2024-01-15T01:02:16;53.20;;;18.67;;
61344;SDS011;47216;42.656;23.232;2024-01-15T01:04:44;52.57;;;17.27;;
61344;SDS011;47216;42.656;23.232;2024-01-15T01:07:15;57.83;;;19.20;;
61344;SDS011;47216;42.656;23.232;2024-01-15T01:09:45;105.27;;;27.70;;
61344;SDS011;47216;42.656;23.232;2024-01-15T01:12:14;94.70;;;25.50;;
61344;SDS011;47216;42.656;23.232;2024-01-15T01:14:44;67.23;;;18.80;;
61344;SDS011;47216;42.656;23.232;2024-01-15T01:17:19;62.47;;;21.73;;
61344;SDS011;47216;42.656;23.232;2024-01-15T01:19:49;46.90;;;17.67;;
61344;SDS011;47216;42.656;23.232;2024-01-15T01:22:18;56.60;;;17.63;;
61344;SDS011;47216;42.656;23.232;2024-01-15T01:24:48;78.20;;;24.70;;
61344;SDS011;47216;42.656;23.232;2024-01-15T01:27:17;61.47;;;20.90;;
61344;SDS011;47216;42.656;23.232;2024-01-15T01:29:47;25.93;;;10.17;;
61344;SDS011;47216;42.656;23.232;2024-01-15T01:32:19;33.13;;;12.37;;
61344;SDS011;47216;42.656;23.232;2024-01-15T01:34:49;58.20;;;17.33;;
61344;SDS011;47216;42.656;23.232;2024-01-15T01:37:18;52.13;;;15.83;;
61344;SDS011;47216;42.656;23.232;2024-01-15T01:39:46;35.17;;;12.67;;
61344;SDS011;47216;42.656;23.232;2024-01-15T01:42:15;52.67;;;14.53;;
61344;SDS011;47216;42.656;23.232;2024-01-15T01:44:45;26.67;;;10.47;;
61344;SDS011;47216;42.656;23.232;2024-01-15T01:47:19;40.67;;;13.77;;
61344;SDS011;47216;42.656;23.232;2024-01-15T01:49:50;34.93;;;12.07;;
61344;SDS011;47216;42.656;23.232;2024-01-15T01:52:17;31.63;;;12.67;;
61344;SDS011;47216;42.656;23.232;2024-01-15T01:54:45;54.30;;;15.50;;
61344;SDS011;47216;42.656;23.232;2024-01-15T01:57:19;70.90;;;18.47;;
61344;SDS011;47216;42.656;23.232;2024-01-15T01:59:50;64.40;;;17.53;;
61344;SDS011;47216;42.656;23.232;2024-01-15T02:02:21;60.40;;;16.40;;
61344;SDS011;47216;42.656;23.232;2024-01-15T02:04:50;102.80;;;25.07;;
61344;SDS011;47216;42.656;23.232;2024-01-15T02:07:20;79.23;;;21.17;;
61344;SDS011;47216;42.656;23.232;2024-01-15T02:09:49;86.73;;;19.87;;
61344;SDS011;47216;42.656;23.232;2024-01-15T02:12:18;70.37;;;17.10;;
61344;SDS011;47216;42.656;23.232;2024-01-15T02:14:50;50.57;;;13.20;;
61344;SDS011;47216;42.656;23.232;2024-01-15T02:17:19;27.93;;;9.83;;
61344;SDS011;47216;42.656;23.232;2024-01-15T02:19:50;80.20;;;19.53;;
61344;SDS011;47216;42.656;23.232;2024-01-15T02:22:18;66.30;;;15.37;;
61344;SDS011;47216;42.656;23.232;2024-01-15T02:24:48;71.40;;;18.97;;
61344;SDS011;47216;42.656;23.232;2024-01-15T02:27:19;44.63;;;14.63;;
61344;SDS011;47216;42.656;23.232;2024-01-15T02:29:49;40.73;;;13.57;;
61344;SDS011;47216;42.656;23.232;2024-01-15T02:32:19;40.13;;;13.73;;
61344;SDS011;47216;42.656;23.232;2024-01-15T02:34:49;37.10;;;12.10;;
61344;SDS011;47216;42.656;23.232;2024-01-15T02:37:17;51.53;;;14.43;;
61344;SDS011;47216;42.656;23.232;2024-01-15T02:39:48;49.67;;;15.87;;
61344;SDS011;47216;42.656;23.232;2024-01-15T02:42:19;55.87;;;17.53;;
61344;SDS011;47216;42.656;23.232;2024-01-15T02:44:47;45.47;;;14.67;;
61344;SDS011;47216;42.656;23.232;2024-01-15T02:47:19;50.07;;;16.40;;
61344;SDS011;47216;42.656;23.232;2024-01-15T02:49:48;110.27;;;31.20;;
61344;SDS011;47216;42.656;23.232;2024-01-15T02:52:17;86.77;;;28.13;;
61344;SDS011;47216;42.656;23.232;2024-01-15T02:54:51;95.60;;;25.80;;
61344;SDS011;47216;42.656;23.232;2024-01-15T02:57:21;50.03;;;18.37;;
61344;SDS011;47216;42.656;23.232;2024-01-15T02:59:51;67.30;;;22.40;;
61344;SDS011;47216;42.656;23.232;2024-01-15T03:02:20;63.17;;;22.87;;
61344;SDS011;47216;42.656;23.232;2024-01-15T03:04:51;41.63;;;14.20;;
61344;SDS011;47216;42.656;23.232;2024-01-15T03:07:19;37.07;;;13.43;;
61344;SDS011;47216;42.656;23.232;2024-01-15T03:09:51;36.60;;;14.47;;
61344;SDS011;47216;42.656;23.232;2024-01-15T03:12:21;37.70;;;15.67;;
61344;SDS011;47216;42.656;23.232;2024-01-15T03:14:50;27.87;;;12.50;;
61344;SDS011;47216;42.656;23.232;2024-01-15T03:17:19;52.47;;;18.90;;
61344;SDS011;47216;42.656;23.232;2024-01-15T03:19:51;45.93;;;16.07;;
61344;SDS011;47216;42.656;23.232;2024-01-15T03:22:21;42.17;;;14.67;;
61344;SDS011;47216;42.656;23.232;2024-01-15T03:24:54;30.60;;;12.53;;
61344;SDS011;47216;42.656;23.232;2024-01-15T03:27:24;31.77;;;11.47;;
61344;SDS011;47216;42.656;23.232;2024-01-15T03:29:52;51.23;;;21.10;;
61344;SDS011;47216;42.656;23.232;2024-01-15T03:32:20;54.43;;;19.53;;
61344;SDS011;47216;42.656;23.232;2024-01-15T03:34:51;29.73;;;11.53;;
61344;SDS011;47216;42.656;23.232;2024-01-15T03:37:20;29.97;;;11.60;;
61344;SDS011;47216;42.656;23.232;2024-01-15T03:39:54;22.77;;;9.00;;
61344;SDS011;47216;42.656;23.232;2024-01-15T03:42:22;20.00;;;9.10;;
61344;SDS011;47216;42.656;23.232;2024-01-15T03:44:51;31.40;;;12.90;;
61344;SDS011;47216;42.656;23.232;2024-01-15T03:47:22;27.50;;;12.27;;
61344;SDS011;47216;42.656;23.232;2024-01-15T03:49:50;28.47;;;11.40;;
61344;SDS011;47216;42.656;23.232;2024-01-15T03:52:22;24.60;;;11.47;;
61344;SDS011;47216;42.656;23.232;2024-01-15T03:54:50;39.87;;;15.53;;
61344;SDS011;47216;42.656;23.232;2024-01-15T03:57:22;53.47;;;20.20;;
61344;SDS011;47216;42.656;23.232;2024-01-15T03:59:51;56.83;;;21.40;;
61344;SDS011;47216;42.656;23.232;2024-01-15T04:02:19;24.47;;;10.37;;
61344;SDS011;47216;42.656;23.232;2024-01-15T04:04:52;21.17;;;10.47;;
61344;SDS011;47216;42.656;23.232;2024-01-15T04:07:22;15.17;;;8.10;;
61344;SDS011;47216;42.656;23.232;2024-01-15T04:09:51;26.20;;;11.17;;
61344;SDS011;47216;42.656;23.232;2024-01-15T04:12:21;48.60;;;18.30;;
61344;SDS011;47216;42.656;23.232;2024-01-15T04:14:52;15.00;;;7.07;;
61344;SDS011;47216;42.656;23.232;2024-01-15T04:17:21;17.27;;;7.50;;
61344;SDS011;47216;42.656;23.232;2024-01-15T04:19:52;40.27;;;15.90;;
61344;SDS011;47216;42.656;23.232;2024-01-15T04:22:22;23.40;;;11.27;;
61344;SDS011;47216;42.656;23.232;2024-01-15T04:24:51;55.20;;;23.60;;
61344;SDS011;47216;42.656;23.232;2024-01-15T04:27:22;33.90;;;14.47;;
61344;SDS011;47216;42.656;23.232;2024-01-15T04:29:53;19.23;;;9.97;;
61344;SDS011;47216;42.656;23.232;2024-01-15T04:32:23;15.13;;;8.20;;
61344;SDS011;47216;42.656;23.232;2024-01-15T04:34:52;15.37;;;6.67;;
61344;SDS011;47216;42.656;23.232;2024-01-15T04:37:23;26.33;;;12.67;;
61344;SDS011;47216;42.656;23.232;2024-01-15T04:39:53;13.57;;;6.47;;
61344;SDS011;47216;42.656;23.232;2024-01-15T04:42:25;15.87;;;7.70;;
61344;SDS011;47216;42.656;23.232;2024-01-15T04:44:56;15.40;;;7.53;;
61344;SDS011;47216;42.656;23.232;2024-01-15T04:47:27;45.80;;;20.63;;
61344;SDS011;47216;42.656;23.232;2024-01-15T04:49:57;30.20;;;14.10;;
61344;SDS011;47216;42.656;23.232;2024-01-15T04:52:27;25.90;;;12.23;;
61344;SDS011;47216;42.656;23.232;2024-01-15T04:54:57;20.80;;;10.60;;
61344;SDS011;47216;42.656;23.232;2024-01-15T04:57:27;17.40;;;8.40;;
61344;SDS011;47216;42.656;23.232;2024-01-15T04:59:57;18.20;;;8.87;;
61344;SDS011;47216;42.656;23.232;2024-01-15T05:02:27;27.53;;;12.57;;
61344;SDS011;47216;42.656;23.232;2024-01-15T05:04:59;16.53;;;8.70;;
61344;SDS011;47216;42.656;23.232;2024-01-15T05:07:26;16.47;;;8.77;;
61344;SDS011;47216;42.656;23.232;2024-01-15T05:09:57;14.53;;;8.23;;
61344;SDS011;47216;42.656;23.232;2024-01-15T05:12:27;19.20;;;8.07;;
61344;SDS011;47216;42.656;23.232;2024-01-15T05:14:54;11.10;;;6.63;;
61344;SDS011;47216;42.656;23.232;2024-01-15T05:17:25;18.67;;;7.57;;
61344;SDS011;47216;42.656;23.232;2024-01-15T05:19:54;13.13;;;6.23;;
61344;SDS011;47216;42.656;23.232;2024-01-15T05:22:23;15.80;;;6.97;;
61344;SDS011;47216;42.656;23.232;2024-01-15T05:24:51;12.90;;;7.83;;
61344;SDS011;47216;42.656;23.232;2024-01-15T05:27:23;14.33;;;8.33;;
61344;SDS011;47216;42.656;23.232;2024-01-15T05:29:54;16.87;;;8.43;;
61344;SDS011;47216;42.656;23.232;2024-01-15T05:32:23;24.03;;;11.40;;
61344;SDS011;47216;42.656;23.232;2024-01-15T05:34:52;20.13;;;11.10;;
61344;SDS011;47216;42.656;23.232;2024-01-15T05:37:20;24.10;;;10.37;;
61344;SDS011;47216;42.656;23.232;2024-01-15T05:39:49;21.33;;;10.60;;
61344;SDS011;47216;42.656;23.232;2024-01-15T05:42:21;21.80;;;11.93;;
61344;SDS011;47216;42.656;23.232;2024-01-15T05:44:50;24.07;;;11.53;;
61344;SDS011;47216;42.656;23.232;2024-01-15T05:47:25;20.47;;;11.60;;
61344;SDS011;47216;42.656;23.232;2024-01-15T05:49:54;26.43;;;12.33;;
61344;SDS011;47216;42.656;23.232;2024-01-15T05:52:24;24.97;;;12.07;;
61344;SDS011;47216;42.656;23.232;2024-01-15T05:54:54;18.17;;;10.87;;
61344;SDS011;47216;42.656;23.232;2024-01-15T05:57:22;24.07;;;11.43;;
61344;SDS011;47216;42.656;23.232;2024-01-15T05:59:51;21.43;;;10.40;;
61344;SDS011;47216;42.656;23.232;2024-01-15T06:02:24;17.73;;;9.20;;
61344;SDS011;47216;42.656;23.232;2024-01-15T06:04:54;17.93;;;9.93;;
61344;SDS011;47216;42.656;23.232;2024-01-15T06:07:24;19.47;;;10.27;;
61344;SDS011;47216;42.656;23.232;2024-01-15T06:09:53;20.77;;;12.90;;
61344;SDS011;47216;42.656;23.232;2024-01-15T06:12:22;21.53;;;11.17;;
61344;SDS011;47216;42.656;23.232;2024-01-15T06:14:55;17.30;;;9.30;;
61344;SDS011;47216;42.656;23.232;2024-01-15T06:17:25;18.77;;;8.80;;
61344;SDS011;47216;42.656;23.232;2024-01-15T06:19:55;15.53;;;8.27;;
61344;SDS011;47216;42.656;23.232;2024-01-15T06:22:26;22.13;;;9.20;;
61344;SDS011;47216;42.656;23.232;2024-01-15T06:24:55;20.67;;;11.87;;
61344;SDS011;47216;42.656;23.232;2024-01-15T06:27:26;21.90;;;11.00;;
61344;SDS011;47216;42.656;23.232;2024-01-15T06:29:57;17.27;;;10.70;;
61344;SDS011;47216;42.656;23.232;2024-01-15T06:32:25;19.30;;;9.83;;
61344;SDS011;47216;42.656;23.232;2024-01-15T06:34:52;17.07;;;10.80;;
61344;SDS011;47216;42.656;23.232;2024-01-15T06:37:20;16.40;;;9.90;;
61344;SDS011;47216;42.656;23.232;2024-01-15T06:39:47;17.27;;;10.43;;
61344;SDS011;47216;42.656;23.232;2024-01-15T06:42:14;23.63;;;12.80;;
61344;SDS011;47216;42.656;23.232;2024-01-15T06:44:41;22.23;;;11.93;;
61344;SDS011;47216;42.656;23.232;2024-01-15T06:47:10;22.23;;;11.23;;
61344;SDS011;47216;42.656;23.232;2024-01-15T06:49:38;18.57;;;9.97;;
61344;SDS011;47216;42.656;23.232;2024-01-15T06:52:09;20.50;;;11.63;;
61344;SDS011;47216;42.656;23.232;2024-01-15T06:54:39;38.70;;;18.73;;
61344;SDS011;47216;42.656;23.232;2024-01-15T06:57:09;39.27;;;16.70;;
61344;SDS011;47216;42.656;23.232;2024-01-15T06:59:38;38.27;;;16.43;;
61344;SDS011;47216;42.656;23.232;2024-01-15T07:02:11;32.03;;;14.63;;
61344;SDS011;47216;42.656;23.232;2024-01-15T07:04:42;32.30;;;16.10;;
61344;SDS011;47216;42.656;23.232;2024-01-15T07:07:11;28.63;;;14.17;;
61344;SDS011;47216;42.656;23.232;2024-01-15T07:09:42;28.43;;;16.17;;
61344;SDS011;47216;42.656;23.232;2024-01-15T07:12:10;29.43;;;15.50;;
61344;SDS011;47216;42.656;23.232;2024-01-15T07:14:40;27.27;;;14.70;;
61344;SDS011;47216;42.656;23.232;2024-01-15T07:17:14;26.63;;;14.07;;
61344;SDS011;47216;42.656;23.232;2024-01-15T07:19:45;24.00;;;12.90;;
61344;SDS011;47216;42.656;23.232;2024-01-15T07:22:12;24.87;;;12.83;;
61344;SDS011;47216;42.656;23.232;2024-01-15T07:24:43;49.27;;;24.80;;
61344;SDS011;47216;42.656;23.232;2024-01-15T07:27:12;21.33;;;11.27;;
61344;SDS011;47216;42.656;23.232;2024-01-15T07:29:39;22.40;;;12.13;;
61344;SDS011;47216;42.656;23.232;2024-01-15T07:32:08;24.70;;;13.97;;
61344;SDS011;47216;42.656;23.232;2024-01-15T07:34:37;19.70;;;10.10;;
61344;SDS011;47216;42.656;23.232;2024-01-15T07:37:04;17.67;;;9.93;;
61344;SDS011;47216;42.656;23.232;2024-01-15T07:39:31;18.83;;;10.73;;
61344;SDS011;47216;42.656;23.232;2024-01-15T07:41:59;20.63;;;10.77;;
61344;SDS011;47216;42.656;23.232;2024-01-15T07:44:29;20.07;;;10.67;;
61344;SDS011;47216;42.656;23.232;2024-01-15T07:46:58;22.80;;;10.37;;
61344;SDS011;47216;42.656;23.232;2024-01-15T07:49:26;19.70;;;10.27;;
61344;SDS011;47216;42.656;23.232;2024-01-15T07:51:58;16.63;;;9.90;;
61344;SDS011;47216;42.656;23.232;2024-01-15T07:54:27;25.20;;;12.27;;
61344;SDS011;47216;42.656;23.232;2024-01-15T07:56:58;20.93;;;11.53;;
61344;SDS011;47216;42.656;23.232;2024-01-15T07:59:28;22.30;;;12.23;;
61344;SDS011;47216;42.656;23.232;2024-01-15T08:01:58;26.13;;;12.00;;
61344;SDS011;47216;42.656;23.232;2024-01-15T08:04:30;23.80;;;10.00;;
61344;SDS011;47216;42.656;23.232;2024-01-15T08:07:01;20.33;;;9.23;;
61344;SDS011;47216;42.656;23.232;2024-01-15T08:09:32;20.13;;;11.07;;
61344;SDS011;47216;42.656;23.232;2024-01-15T08:12:02;20.53;;;10.80;;
61344;SDS011;47216;42.656;23.232;2024-01-15T08:14:37;23.73;;;11.90;;
61344;SDS011;47216;42.656;23.232;2024-01-15T08:17:07;36.40;;;18.50;;
61344;SDS011;47216;42.656;23.232;2024-01-15T08:19:37;45.43;;;20.80;;
61344;SDS011;47216;42.656;23.232;2024-01-15T08:22:11;34.97;;;15.77;;
61344;SDS011;47216;42.656;23.232;2024-01-15T08:24:40;30.33;;;16.20;;
61344;SDS011;47216;42.656;23.232;2024-01-15T08:27:11;32.83;;;17.07;;
61344;SDS011;47216;42.656;23.232;2024-01-15T08:29:44;31.37;;;14.97;;
61344;SDS011;47216;42.656;23.232;2024-01-15T08:32:13;30.23;;;14.33;;
61344;SDS011;47216;42.656;23.232;2024-01-15T08:34:40;27.83;;;14.00;;
61344;SDS011;47216;42.656;23.232;2024-01-15T08:37:08;26.90;;;12.03;;
61344;SDS011;47216;42.656;23.232;2024-01-15T08:39:36;25.97;;;14.17;;
61344;SDS011;47216;42.656;23.232;2024-01-15T08:42:04;22.60;;;12.87;;
61344;SDS011;47216;42.656;23.232;2024-01-15T08:44:32;30.50;;;14.10;;
61344;SDS011;47216;42.656;23.232;2024-01-15T08:46:59;25.30;;;13.43;;
61344;SDS011;47216;42.656;23.232;2024-01-15T08:49:28;26.73;;;13.60;;
61344;SDS011;47216;42.656;23.232;2024-01-15T08:51:55;29.67;;;16.20;;
61344;SDS011;47216;42.656;23.232;2024-01-15T08:54:22;31.57;;;16.40;;
61344;SDS011;47216;42.656;23.232;2024-01-15T08:56:51;28.23;;;15.10;;
61344;SDS011;47216;42.656;23.232;2024-01-15T08:59:18;29.97;;;15.70;;
61344;SDS011;47216;42.656;23.232;2024-01-15T09:01:50;28.00;;;15.70;;
61344;SDS011;47216;42.656;23.232;2024-01-15T09:04:17;32.37;;;16.93;;
61344;SDS011;47216;42.656;23.232;2024-01-15T09:06:45;87.33;;;42.80;;
61344;SDS011;47216;42.656;23.232;2024-01-15T09:09:15;85.90;;;35.77;;
61344;SDS011;47216;42.656;23.232;2024-01-15T09:11:42;53.53;;;24.30;;
61344;SDS011;47216;42.656;23.232;2024-01-15T09:14:12;36.97;;;19.83;;
61344;SDS011;47216;42.656;23.232;2024-01-15T09:16:39;29.50;;;16.53;;
61344;SDS011;47216;42.656;23.232;2024-01-15T09:19:06;29.33;;;15.43;;
61344;SDS011;47216;42.656;23.232;2024-01-15T09:21:33;32.67;;;16.43;;
61344;SDS011;47216;42.656;23.232;2024-01-15T09:24:01;36.40;;;17.77;;
61344;SDS011;47216;42.656;23.232;2024-01-15T09:26:27;31.30;;;16.53;;
61344;SDS011;47216;42.656;23.232;2024-01-15T09:28:55;39.97;;;19.60;;
61344;SDS011;47216;42.656;23.232;2024-01-15T09:31:24;37.67;;;19.23;;
61344;SDS011;47216;42.656;23.232;2024-01-15T09:33:52;32.67;;;18.73;;
61344;SDS011;47216;42.656;23.232;2024-01-15T09:36:21;37.20;;;21.23;;
61344;SDS011;47216;42.656;23.232;2024-01-15T09:38:49;42.03;;;21.73;;
61344;SDS011;47216;42.656;23.232;2024-01-15T09:41:16;35.27;;;18.27;;
61344;SDS011;47216;42.656;23.232;2024-01-15T09:43:44;29.07;;;18.37;;
61344;SDS011;47216;42.656;23.232;2024-01-15T09:46:12;34.07;;;18.53;;
61344;SDS011;47216;42.656;23.232;2024-01-15T09:48:43;39.33;;;19.90;;
61344;SDS011;47216;42.656;23.232;2024-01-15T09:51:10;32.03;;;18.03;;
61344;SDS011;47216;42.656;23.232;2024-01-15T09:53:38;33.73;;;18.87;;
61344;SDS011;47216;42.656;23.232;2024-01-15T09:56:07;29.53;;;16.40;;
61344;SDS011;47216;42.656;23.232;2024-01-15T09:58:37;28.53;;;14.33;;
61344;SDS011;47216;42.656;23.232;2024-01-15T10:01:07;33.57;;;15.83;;
61344;SDS011;47216;42.656;23.232;2024-01-15T10:03:36;28.27;;;14.97;;
61344;SDS011;47216;42.656;23.232;2024-01-15T10:06:06;31.80;;;17.27;;
61344;SDS011;47216;42.656;23.232;2024-01-15T10:08:35;26.33;;;15.93;;
61344;SDS011;47216;42.656;23.232;2024-01-15T10:11:04;23.17;;;12.60;;
61344;SDS011;47216;42.656;23.232;2024-01-15T10:13:32;25.37;;;13.70;;
61344;SDS011;47216;42.656;23.232;2024-01-15T10:16:00;26.43;;;13.50;;
61344;SDS011;47216;42.656;23.232;2024-01-15T10:18:29;19.97;;;11.50;;
61344;SDS011;47216;42.656;23.232;2024-01-15T10:20:57;18.97;;;10.10;;
61344;SDS011;47216;42.656;23.232;2024-01-15T10:23:26;15.77;;;9.07;;
61344;SDS011;47216;42.656;23.232;2024-01-15T10:25:56;19.27;;;9.90;;
61344;SDS011;47216;42.656;23.232;2024-01-15T10:28:25;24.00;;;11.70;;
61344;SDS011;47216;42.656;23.232;2024-01-15T10:30:55;20.40;;;10.73;;
61344;SDS011;47216;42.656;23.232;2024-01-15T10:33:24;22.20;;;11.30;;
61344;SDS011;47216;42.656;23.232;2024-01-15T10:35:53;23.03;;;12.37;;
61344;SDS011;47216;42.656;23.232;2024-01-15T10:38:22;20.97;;;10.30;;
61344;SDS011;47216;42.656;23.232;2024-01-15T10:40:53;23.67;;;12.30;;
61344;SDS011;47216;42.656;23.232;2024-01-15T10:43:22;19.23;;;10.73;;
61344;SDS011;47216;42.656;23.232;2024-01-15T10:45:50;20.83;;;11.77;;
61344;SDS011;47216;42.656;23.232;2024-01-15T10:48:18;24.67;;;11.97;;
61344;SDS011;47216;42.656;23.232;2024-01-15T10:50:47;23.43;;;12.50;;
61344;SDS011;47216;42.656;23.232;2024-01-15T10:53:15;23.37;;;12.73;;
61344;SDS011;47216;42.656;23.232;2024-01-15T10:55:43;24.77;;;12.93;;
61344;SDS011;47216;42.656;23.232;2024-01-15T10:58:16;32.80;;;16.10;;
61344;SDS011;47216;42.656;23.232;2024-01-15T11:00:45;30.73;;;15.37;;
61344;SDS011;47216;42.656;23.232;2024-01-15T11:03:13;27.43;;;14.70;;
61344;SDS011;47216;42.656;23.232;2024-01-15T11:05:42;25.20;;;14.53;;
61344;SDS011;47216;42.656;23.232;2024-01-15T11:08:09;31.83;;;15.50;;
61344;SDS011;47216;42.656;23.232;2024-01-15T11:10:37;34.47;;;18.93;;
61344;SDS011;47216;42.656;23.232;2024-01-15T11:13:08;34.43;;;17.70;;
61344;SDS011;47216;42.656;23.232;2024-01-15T11:18:26;30.23;;;15.97;;
61344;SDS011;47216;42.656;23.232;2024-01-15T11:23:47;33.13;;;16.93;;
61344;SDS011;47216;42.656;23.232;2024-01-15T11:26:36;34.00;;;16.43;;
61344;SDS011;47216;42.656;23.232;2024-01-15T11:29:05;33.80;;;17.17;;
61344;SDS011;47216;42.656;23.232;2024-01-15T11:37:27;42.17;;;20.27;;
61344;SDS011;47216;42.656;23.232;2024-01-15T11:39:55;34.43;;;17.87;;
61344;SDS011;47216;42.656;23.232;2024-01-15T11:42:28;33.30;;;17.57;;
61344;SDS011;47216;42.656;23.232;2024-01-15T11:44:56;32.90;;;18.50;;
61344;SDS011;47216;42.656;23.232;2024-01-15T11:47:33;34.77;;;18.63;;
61344;SDS011;47216;42.656;23.232;2024-01-15T11:50:23;26.43;;;16.20;;
61344;SDS011;47216;42.656;23.232;2024-01-15T11:52:55;29.87;;;17.53;;
61344;SDS011;47216;42.656;23.232;2024-01-15T11:55:26;38.10;;;18.17;;
61344;SDS011;47216;42.656;23.232;2024-01-15T11:57:54;36.33;;;19.73;;
61344;SDS011;47216;42.656;23.232;2024-01-15T12:00:23;33.83;;;18.63;;
61344;SDS011;47216;42.656;23.232;2024-01-15T12:02:52;33.13;;;17.57;;
61344;SDS011;47216;42.656;23.232;2024-01-15T12:05:19;30.97;;;16.70;;
61344;SDS011;47216;42.656;23.232;2024-01-15T12:07:47;32.40;;;17.60;;
61344;SDS011;47216;42.656;23.232;2024-01-15T12:10:15;30.70;;;16.57;;
61344;SDS011;47216;42.656;23.232;2024-01-15T12:12:53;35.60;;;17.40;;
61344;SDS011;47216;42.656;23.232;2024-01-15T12:15:24;28.73;;;16.30;;
61344;SDS011;47216;42.656;23.232;2024-01-15T12:17:53;27.03;;;16.23;;
61344;SDS011;47216;42.656;23.232;2024-01-15T12:20:21;30.13;;;17.37;;
61344;SDS011;47216;42.656;23.232;2024-01-15T12:22:48;31.07;;;17.03;;
61344;SDS011;47216;42.656;23.232;2024-01-15T12:25:15;29.67;;;17.77;;
61344;SDS011;47216;42.656;23.232;2024-01-15T12:27:42;99.20;;;41.03;;
61344;SDS011;47216;42.656;23.232;2024-01-15T12:30:10;124.53;;;46.10;;
61344;SDS011;47216;42.656;23.232;2024-01-15T12:32:39;121.50;;;44.43;;
61344;SDS011;47216;42.656;23.232;2024-01-15T12:35:08;72.50;;;31.67;;
61344;SDS011;47216;42.656;23.232;2024-01-15T12:37:36;52.00;;;25.70;;
61344;SDS011;47216;42.656;23.232;2024-01-15T12:40:03;39.27;;;20.13;;
61344;SDS011;47216;42.656;23.232;2024-01-15T12:42:33;43.60;;;21.53;;
61344;SDS011;47216;42.656;23.232;2024-01-15T12:45:00;32.17;;;15.57;;
61344;SDS011;47216;42.656;23.232;2024-01-15T12:47:28;33.83;;;15.97;;
61344;SDS011;47216;42.656;23.232;2024-01-15T12:49:57;24.37;;;13.87;;
61344;SDS011;47216;42.656;23.232;2024-01-15T12:52:27;29.63;;;13.67;;
61344;SDS011;47216;42.656;23.232;2024-01-15T12:54:55;22.03;;;12.90;;
61344;SDS011;47216;42.656;23.232;2024-01-15T12:57:22;25.00;;;13.03;;
61344;SDS011;47216;42.656;23.232;2024-01-15T12:59:49;23.40;;;12.90;;
61344;SDS011;47216;42.656;23.232;2024-01-15T13:02:16;29.40;;;16.50;;
61344;SDS011;47216;42.656;23.232;2024-01-15T13:04:44;31.53;;;14.97;;
61344;SDS011;47216;42.656;23.232;2024-01-15T13:07:11;23.60;;;13.80;;
61344;SDS011;47216;42.656;23.232;2024-01-15T13:09:39;33.43;;;15.90;;
61344;SDS011;47216;42.656;23.232;2024-01-15T13:12:07;26.97;;;15.10;;
61344;SDS011;47216;42.656;23.232;2024-01-15T13:14:34;26.73;;;15.77;;
61344;SDS011;47216;42.656;23.232;2024-01-15T13:17:01;30.50;;;16.97;;
61344;SDS011;47216;42.656;23.232;2024-01-15T13:19:28;26.83;;;15.40;;
61344;SDS011;47216;42.656;23.232;2024-01-15T13:21:55;27.27;;;14.70;;
61344;SDS011;47216;42.656;23.232;2024-01-15T13:24:25;26.60;;;15.57;;
61344;SDS011;47216;42.656;23.232;2024-01-15T13:26:53;25.47;;;14.47;;
61344;SDS011;47216;42.656;23.232;2024-01-15T13:29:22;26.73;;;14.67;;
61344;SDS011;47216;42.656;23.232;2024-01-15T13:31:49;32.40;;;16.50;;
61344;SDS011;47216;42.656;23.232;2024-01-15T13:34:16;28.37;;;15.10;;
61344;SDS011;47216;42.656;23.232;2024-01-15T13:36:43;31.90;;;14.80;;
61344;SDS011;47216;42.656;23.232;2024-01-15T13:39:10;36.63;;;18.83;;
61344;SDS011;47216;42.656;23.232;2024-01-15T13:41:37;29.97;;;14.40;;
61344;SDS011;47216;42.656;23.232;2024-01-15T13:44:06;26.50;;;14.10;;
61344;SDS011;47216;42.656;23.232;2024-01-15T13:46:33;25.40;;;14.87;;
61344;SDS011;47216;42.656;23.232;2024-01-15T13:49:00;21.27;;;12.03;;
61344;SDS011;47216;42.656;23.232;2024-01-15T13:51:27;23.53;;;12.80;;
61344;SDS011;47216;42.656;23.232;2024-01-15T13:53:55;29.67;;;15.40;;
61344;SDS011;47216;42.656;23.232;2024-01-15T13:56:23;34.03;;;18.40;;
61344;SDS011;47216;42.656;23.232;2024-01-15T13:58:51;33.77;;;17.63;;
61344;SDS011;47216;42.656;23.232;2024-01-15T14:01:19;28.53;;;15.67;;
61344;SDS011;47216;42.656;23.232;2024-01-15T14:03:47;29.83;;;15.77;;
61344;SDS011;47216;42.656;23.232;2024-01-15T14:06:14;29.27;;;15.30;;
61344;SDS011;47216;42.656;23.232;2024-01-15T14:08:41;28.53;;;15.80;;
61344;SDS011;47216;42.656;23.232;2024-01-15T14:11:08;36.93;;;18.07;;
61344;SDS011;47216;42.656;23.232;2024-01-15T14:13:35;32.77;;;17.20;;
61344;SDS011;47216;42.656;23.232;2024-01-15T14:16:03;33.37;;;17.83;;
61344;SDS011;47216;42.656;23.232;2024-01-15T14:18:33;38.97;;;20.93;;
61344;SDS011;47216;42.656;23.232;2024-01-15T14:21:02;72.90;;;33.70;;
61344;SDS011;47216;42.656;23.232;2024-01-15T14:23:29;64.50;;;30.77;;
61344;SDS011;47216;42.656;23.232;2024-01-15T14:25:57;63.33;;;28.37;;
61344;SDS011;47216;42.656;23.232;2024-01-15T14:28:24;128.57;;;48.87;;
61344;SDS011;47216;42.656;23.232;2024-01-15T14:30:51;84.00;;;33.20;;
61344;SDS011;47216;42.656;23.232;2024-01-15T14:33:21;80.27;;;33.00;;